Time;durP1;ratioP1;P1;durP2;ratioP2;P2;SDS_P1;SDS_P2;PMS_P1;PMS_P2;Temp;Humidity;BMP_temperature;BMP_pressure;BME280_temperature;BME280_humidity;BME280_pressure;Samples;Min_cycle;Max_cycle;Signal;HPM_P1;HPM_P2
2021/03/20 00:00:19;;;;;;;434.02;198.23;;;;;;;;;;5043906;28;20121;-80
2021/03/20 00:02:45;;;;;;;428.70;190.57;;;;;;;;;;5047128;28;20083;-80
2021/03/20 00:05:11;;;;;;;433.63;196.38;;;;;;;;;;5049749;28;20032;-80
2021/03/20 00:07:38;;;;;;;435.75;197.60;;;;;;;;;;5039414;28;20681;-80
2021/03/20 00:10:06;;;;;;;433.63;198.48;;;;;;;;;;5041181;28;20025;-80
2021/03/20 00:12:32;;;;;;;430.77;193.10;;;;;;;;;;5037336;28;20018;-80
2021/03/20 00:14:58;;;;;;;428.83;184.07;;;;;;;;;;5049534;28;20029;-80
2021/03/20 00:17:24;;;;;;;429.75;188.90;;;;;;;;;;5046856;28;20108;-80
2021/03/20 00:19:50;;;;;;;431.45;186.35;;;;;;;;;;5041268;28;20050;-80
2021/03/20 00:22:16;;;;;;;435.35;191.63;;;;;;;;;;5033134;28;20148;-80
2021/03/20 00:24:42;;;;;;;438.08;189.50;;;;;;;;;;5030332;28;20025;-80
2021/03/20 00:27:08;;;;;;;439.67;198.00;;;;;;;;;;5034407;28;20044;-80
2021/03/20 00:29:34;;;;;;;429.95;186.00;;;;;;;;;;5033600;28;20030;-80
2021/03/20 00:32:00;;;;;;;438.00;184.57;;;;;;;;;;5033000;28;20029;-80
2021/03/20 00:34:26;;;;;;;440.02;189.90;;;;;;;;;;5033146;28;20033;-80
2021/03/20 00:36:52;;;;;;;442.73;190.35;;;;;;;;;;5034058;28;20033;-80
2021/03/20 00:39:18;;;;;;;447.25;188.90;;;;;;;;;;5032555;28;20025;-79
2021/03/20 00:41:44;;;;;;;444.88;196.98;;;;;;;;;;5032794;28;20037;-80
2021/03/20 00:44:10;;;;;;;473.23;201.00;;;;;;;;;;5032863;28;20087;-80
2021/03/20 00:46:37;;;;;;;457.15;195.68;;;;;;;;;;5032414;28;20036;-80
2021/03/20 00:49:03;;;;;;;447.58;184.93;;;;;;;;;;5030980;28;20034;-80
2021/03/20 00:51:29;;;;;;;451.25;194.48;;;;;;;;;;5032235;28;20036;-80
2021/03/20 00:53:55;;;;;;;454.23;183.98;;;;;;;;;;5034028;28;20036;-80
2021/03/20 00:56:22;;;;;;;443.30;181.82;;;;;;;;;;5033634;28;20132;-80
2021/03/20 00:58:47;;;;;;;441.23;184.73;;;;;;;;;;5043547;28;20616;-80
2021/03/20 01:01:18;;;;;;;442.88;187.00;;;;;;;;;;5035665;28;20048;-80
2021/03/20 01:03:45;;;;;;;450.83;191.98;;;;;;;;;;5030141;28;20026;-80
2021/03/20 01:06:12;;;;;;;447.00;190.90;;;;;;;;;;5032738;28;20032;-80
2021/03/20 01:08:39;;;;;;;452.88;192.65;;;;;;;;;;5040376;28;20053;-80
2021/03/20 01:11:06;;;;;;;443.23;190.32;;;;;;;;;;5030506;28;20095;-80
2021/03/20 01:13:32;;;;;;;437.88;180.82;;;;;;;;;;5030705;28;20120;-80
2021/03/20 01:15:58;;;;;;;441.08;196.88;;;;;;;;;;5031663;28;20037;-80
2021/03/20 01:18:24;;;;;;;441.02;194.05;;;;;;;;;;5033279;28;20469;-80
2021/03/20 01:20:50;;;;;;;436.10;190.20;;;;;;;;;;5031850;28;20036;-80
2021/03/20 01:23:16;;;;;;;427.92;179.15;;;;;;;;;;5031754;28;20116;-80
2021/03/20 01:25:42;;;;;;;434.35;193.68;;;;;;;;;;5031610;28;20025;-81
2021/03/20 01:28:09;;;;;;;427.08;184.48;;;;;;;;;;5032147;28;20658;-81
2021/03/20 01:30:36;;;;;;;428.33;184.52;;;;;;;;;;5040078;28;20026;-81
2021/03/20 01:33:03;;;;;;;428.75;189.30;;;;;;;;;;5040297;28;20033;-81
2021/03/20 01:35:29;;;;;;;443.80;197.05;;;;;;;;;;5037316;28;20098;-81
2021/03/20 01:37:56;;;;;;;426.42;191.02;;;;;;;;;;5031808;28;20029;-81
2021/03/20 01:40:23;;;;;;;431.02;192.77;;;;;;;;;;5024038;28;20061;-81
2021/03/20 01:42:49;;;;;;;434.80;186.73;;;;;;;;;;5029856;28;20025;-81
2021/03/20 01:45:24;;;;;;;430.80;185.55;;;;;;;;;;5030173;28;20032;-81
2021/03/20 01:48:09;;;;;;;425.48;182.00;;;;;;;;;;5031117;28;20029;-81
2021/03/20 01:50:37;;;;;;;424.50;182.25;;;;;;;;;;5032320;28;20109;-81
2021/03/20 01:53:21;;;;;;;435.15;188.85;;;;;;;;;;5041192;28;20044;-81
2021/03/20 01:55:47;;;;;;;425.80;181.65;;;;;;;;;;5043093;28;20469;-80
2021/03/20 01:58:14;;;;;;;433.63;193.80;;;;;;;;;;5044964;28;20040;-81
2021/03/20 02:00:42;;;;;;;428.13;187.93;;;;;;;;;;5034661;28;20053;-81
2021/03/20 02:03:11;;;;;;;428.33;187.70;;;;;;;;;;5031382;28;20026;-81
2021/03/20 02:05:37;;;;;;;429.60;188.98;;;;;;;;;;5031631;28;20033;-81
2021/03/20 02:08:04;;;;;;;419.88;180.30;;;;;;;;;;5046053;28;20033;-81
2021/03/20 02:10:32;;;;;;;422.02;186.45;;;;;;;;;;5043520;28;20036;-81
2021/03/20 02:13:03;;;;;;;423.45;184.90;;;;;;;;;;5049229;28;20030;-81
2021/03/20 02:15:36;;;;;;;423.92;182.77;;;;;;;;;;5051489;28;20033;-81
2021/03/20 02:18:10;;;;;;;425.48;179.10;;;;;;;;;;5033675;28;20033;-80
2021/03/20 02:21:11;;;;;;;429.55;185.50;;;;;;;;;;5041484;28;20029;-81
2021/03/20 02:23:46;;;;;;;417.55;173.70;;;;;;;;;;5019352;28;20042;-81
2021/03/20 02:26:31;;;;;;;417.58;182.57;;;;;;;;;;5052022;28;20037;-81
2021/03/20 02:29:00;;;;;;;410.95;176.40;;;;;;;;;;5052343;28;20026;-80
2021/03/20 02:31:39;;;;;;;409.58;184.23;;;;;;;;;;5068693;28;20033;-81
2021/03/20 02:34:40;;;;;;;414.55;180.13;;;;;;;;;;5038977;28;20036;-81
2021/03/20 02:37:14;;;;;;;417.27;193.90;;;;;;;;;;5016677;28;20133;-81
2021/03/20 02:39:49;;;;;;;414.75;185.27;;;;;;;;;;5034755;28;20188;-80
2021/03/20 02:42:21;;;;;;;413.38;183.70;;;;;;;;;;5032181;28;20029;-81
2021/03/20 02:44:56;;;;;;;412.02;185.02;;;;;;;;;;5036888;28;20029;-81
2021/03/20 02:47:26;;;;;;;409.55;179.55;;;;;;;;;;5037584;28;20078;-81
2021/03/20 02:49:55;;;;;;;415.15;188.73;;;;;;;;;;5049009;28;20037;-81
2021/03/20 02:52:24;;;;;;;405.52;181.95;;;;;;;;;;5035803;28;20033;-81
2021/03/20 02:54:58;;;;;;;412.85;193.55;;;;;;;;;;5059845;28;20017;-80
2021/03/20 02:57:26;;;;;;;405.67;176.90;;;;;;;;;;5046699;28;20049;-80
2021/03/20 02:59:58;;;;;;;411.45;182.55;;;;;;;;;;5047407;28;20041;-80
2021/03/20 03:02:25;;;;;;;416.60;185.20;;;;;;;;;;5060727;28;20064;-81
2021/03/20 03:04:54;;;;;;;414.92;184.85;;;;;;;;;;5063110;28;20025;-81
2021/03/20 03:07:25;;;;;;;415.30;185.20;;;;;;;;;;5048355;28;20021;-80
2021/03/20 03:10:11;;;;;;;420.20;191.82;;;;;;;;;;5044813;28;20048;-81
2021/03/20 03:12:44;;;;;;;409.67;180.63;;;;;;;;;;5045110;28;20034;-81
2021/03/20 03:15:13;;;;;;;410.88;181.98;;;;;;;;;;5063434;28;20025;-81
2021/03/20 03:17:42;;;;;;;412.35;184.40;;;;;;;;;;5045197;28;20030;-80
2021/03/20 03:20:26;;;;;;;413.92;184.52;;;;;;;;;;5044626;28;20040;-81
2021/03/20 03:22:57;;;;;;;416.27;185.02;;;;;;;;;;5040203;28;20034;-81
2021/03/20 03:25:25;;;;;;;417.50;182.10;;;;;;;;;;5028789;28;20037;-81
2021/03/20 03:27:53;;;;;;;418.63;180.73;;;;;;;;;;5040151;28;20389;-81
2021/03/20 03:30:21;;;;;;;418.17;185.85;;;;;;;;;;5037961;28;20689;-81
2021/03/20 03:32:48;;;;;;;420.95;189.65;;;;;;;;;;5030674;28;20366;-81
2021/03/20 03:35:33;;;;;;;416.73;185.82;;;;;;;;;;5039540;28;20609;-81
2021/03/20 03:38:16;;;;;;;419.35;189.43;;;;;;;;;;5039134;28;20030;-81
2021/03/20 03:40:45;;;;;;;416.35;184.35;;;;;;;;;;5041343;28;20148;-81
2021/03/20 03:43:11;;;;;;;416.95;179.73;;;;;;;;;;5042734;28;20523;-81
2021/03/20 03:45:37;;;;;;;415.20;175.60;;;;;;;;;;5030379;28;20029;-80
2021/03/20 03:48:03;;;;;;;414.05;184.65;;;;;;;;;;5033898;28;20651;-81
2021/03/20 03:50:31;;;;;;;413.48;173.93;;;;;;;;;;5026796;28;20045;-81
2021/03/20 03:52:57;;;;;;;421.40;175.02;;;;;;;;;;5040978;28;20029;-81
2021/03/20 03:55:24;;;;;;;430.63;187.50;;;;;;;;;;5028449;28;20041;-81
2021/03/20 03:57:59;;;;;;;423.48;182.02;;;;;;;;;;5028312;28;20072;-81
2021/03/20 04:00:25;;;;;;;418.25;180.75;;;;;;;;;;5029764;28;20033;-81
2021/03/20 04:03:00;;;;;;;417.38;186.60;;;;;;;;;;5031355;28;20022;-81
2021/03/20 04:05:31;;;;;;;410.70;179.43;;;;;;;;;;5034084;28;20025;-81
2021/03/20 04:08:11;;;;;;;414.50;184.73;;;;;;;;;;5039106;28;20025;-81
2021/03/20 04:10:58;;;;;;;412.02;178.45;;;;;;;;;;5024489;28;20025;-81
2021/03/20 04:13:39;;;;;;;411.40;175.48;;;;;;;;;;5048239;28;20037;-81
2021/03/20 04:16:08;;;;;;;419.08;172.52;;;;;;;;;;5033216;28;20041;-81
2021/03/20 04:18:43;;;;;;;414.60;171.90;;;;;;;;;;5033656;28;20641;-81
2021/03/20 04:21:14;;;;;;;418.17;179.40;;;;;;;;;;5034775;28;20926;-81
2021/03/20 04:23:45;;;;;;;414.02;172.07;;;;;;;;;;5046778;28;20026;-81
2021/03/20 04:26:17;;;;;;;424.75;175.10;;;;;;;;;;5032778;28;20052;-81
2021/03/20 04:28:49;;;;;;;421.25;173.45;;;;;;;;;;5037341;28;20041;-81
2021/03/20 04:31:21;;;;;;;416.25;166.48;;;;;;;;;;5032681;28;20037;-81
2021/03/20 04:34:07;;;;;;;419.70;182.90;;;;;;;;;;5040069;28;20393;-81
2021/03/20 04:36:39;;;;;;;417.10;168.82;;;;;;;;;;5026407;28;20056;-80
2021/03/20 04:39:06;;;;;;;414.20;176.90;;;;;;;;;;5028510;28;20037;-80
2021/03/20 04:41:33;;;;;;;408.20;175.52;;;;;;;;;;5032567;28;20045;-80
2021/03/20 04:44:00;;;;;;;414.48;177.02;;;;;;;;;;5031125;28;20108;-80
2021/03/20 04:46:28;;;;;;;416.70;173.07;;;;;;;;;;5032278;28;20493;-80
2021/03/20 04:49:07;;;;;;;456.00;179.70;;;;;;;;;;5047235;28;20492;-80
2021/03/20 04:51:36;;;;;;;443.85;173.30;;;;;;;;;;5035604;28;20037;-80
2021/03/20 04:54:07;;;;;;;446.63;176.30;;;;;;;;;;5045605;28;20362;-80
2021/03/20 04:56:37;;;;;;;431.92;170.50;;;;;;;;;;5032894;28;20037;-80
2021/03/20 04:59:08;;;;;;;420.77;167.68;;;;;;;;;;5043976;28;20496;-80
2021/03/20 05:01:33;;;;;;;;;;;;;;;;;;5034359;28;20040;-80
2021/03/20 05:04:09;;;;;;;439.65;162.68;;;;;;;;;;5032774;28;19913;-80
2021/03/20 05:06:35;;;;;;;434.98;170.50;;;;;;;;;;5045689;28;20026;-80
2021/03/20 05:09:04;;;;;;;407.58;161.00;;;;;;;;;;5032375;28;20108;-81
2021/03/20 05:11:34;;;;;;;402.58;166.40;;;;;;;;;;5032448;28;20083;-80
2021/03/20 05:14:03;;;;;;;409.58;169.65;;;;;;;;;;5030792;28;20045;-80
2021/03/20 05:16:34;;;;;;;404.45;170.38;;;;;;;;;;5044167;28;20451;-80
2021/03/20 05:19:00;;;;;;;399.13;171.35;;;;;;;;;;5033458;28;20060;-81
2021/03/20 05:21:28;;;;;;;403.33;174.18;;;;;;;;;;5032091;28;20116;-81
2021/03/20 05:23:54;;;;;;;403.38;176.38;;;;;;;;;;5035151;28;20049;-81
2021/03/20 05:26:20;;;;;;;405.42;169.70;;;;;;;;;;5032176;28;20075;-80
2021/03/20 05:28:46;;;;;;;416.33;171.80;;;;;;;;;;5032069;28;20036;-81
2021/03/20 05:31:12;;;;;;;414.27;180.75;;;;;;;;;;5029990;28;20412;-81
2021/03/20 05:33:39;;;;;;;417.77;178.07;;;;;;;;;;5031170;28;20029;-81
2021/03/20 05:36:05;;;;;;;420.45;176.13;;;;;;;;;;5044113;28;20045;-81
2021/03/20 05:38:31;;;;;;;410.17;170.05;;;;;;;;;;5032128;28;20488;-81
2021/03/20 05:41:02;;;;;;;414.15;180.32;;;;;;;;;;5042384;28;20075;-81
2021/03/20 05:43:37;;;;;;;413.48;184.05;;;;;;;;;;5030108;28;20036;-80
2021/03/20 05:46:15;;;;;;;410.70;176.70;;;;;;;;;;5034907;28;20034;-81
2021/03/20 05:48:47;;;;;;;413.00;180.40;;;;;;;;;;5043976;28;20030;-81
2021/03/20 05:51:27;;;;;;;415.00;180.13;;;;;;;;;;5031414;28;20036;-81
2021/03/20 05:54:02;;;;;;;410.75;181.50;;;;;;;;;;5029624;28;20025;-81
2021/03/20 05:56:33;;;;;;;411.45;171.45;;;;;;;;;;5031392;28;20037;-81
2021/03/20 05:59:11;;;;;;;423.38;181.45;;;;;;;;;;5045061;28;20022;-81
2021/03/20 06:01:40;;;;;;;413.55;173.10;;;;;;;;;;5039795;28;20030;-81
2021/03/20 06:04:26;;;;;;;408.80;167.50;;;;;;;;;;5030376;28;20136;-81
2021/03/20 06:07:24;;;;;;;423.00;177.07;;;;;;;;;;5028437;28;20025;-81
2021/03/20 06:10:15;;;;;;;418.75;176.60;;;;;;;;;;5013493;28;20057;-80
2021/03/20 06:12:44;;;;;;;422.83;189.00;;;;;;;;;;5028638;28;20469;-80
2021/03/20 06:15:11;;;;;;;417.33;184.50;;;;;;;;;;5030989;28;20040;-81
2021/03/20 06:18:13;;;;;;;406.80;177.65;;;;;;;;;;5044551;28;20638;-80
2021/03/20 06:20:50;;;;;;;403.15;177.68;;;;;;;;;;5009930;28;21763;-81
2021/03/20 06:23:26;;;;;;;405.27;183.50;;;;;;;;;;5028295;28;20113;-81
2021/03/20 06:26:01;;;;;;;406.38;185.90;;;;;;;;;;5039631;28;20021;-81
2021/03/20 06:28:33;;;;;;;403.17;179.10;;;;;;;;;;5031604;28;20021;-81
2021/03/20 06:31:04;;;;;;;411.00;187.50;;;;;;;;;;5030792;28;20025;-81
2021/03/20 06:33:32;;;;;;;404.52;182.57;;;;;;;;;;5031742;28;20033;-80
2021/03/20 06:36:07;;;;;;;412.20;190.95;;;;;;;;;;5029327;28;20079;-80
2021/03/20 06:38:38;;;;;;;404.10;186.10;;;;;;;;;;5026707;28;20100;-79
2021/03/20 06:41:07;;;;;;;412.48;193.60;;;;;;;;;;5028458;28;20045;-78
2021/03/20 06:43:36;;;;;;;417.95;192.77;;;;;;;;;;5030215;28;20026;-78
2021/03/20 06:46:02;;;;;;;412.88;192.55;;;;;;;;;;5029788;28;20057;-78
2021/03/20 06:48:32;;;;;;;422.33;201.98;;;;;;;;;;5044299;28;20068;-77
2021/03/20 06:50:59;;;;;;;418.67;198.15;;;;;;;;;;5029124;28;20116;-78
2021/03/20 06:53:30;;;;;;;420.73;208.00;;;;;;;;;;5026828;28;20026;-77
2021/03/20 06:55:57;;;;;;;423.20;211.57;;;;;;;;;;5029705;28;20064;-77
2021/03/20 06:58:29;;;;;;;423.83;218.52;;;;;;;;;;5029896;28;20504;-77
2021/03/20 07:00:56;;;;;;;422.60;221.18;;;;;;;;;;5025855;28;20037;-77
2021/03/20 07:03:33;;;;;;;427.50;220.43;;;;;;;;;;5043770;28;20018;-78
2021/03/20 07:06:05;;;;;;;425.25;220.80;;;;;;;;;;5030215;28;20032;-77
2021/03/20 07:08:37;;;;;;;425.65;219.70;;;;;;;;;;5030963;28;20045;-77
2021/03/20 07:11:04;;;;;;;443.35;230.65;;;;;;;;;;5026197;28;20034;-78
2021/03/20 07:13:31;;;;;;;450.80;226.45;;;;;;;;;;5030121;28;20038;-78
2021/03/20 07:16:04;;;;;;;467.05;234.90;;;;;;;;;;5027781;28;20649;-78
2021/03/20 07:18:44;;;;;;;446.52;232.43;;;;;;;;;;5042733;28;20037;-78
2021/03/20 07:21:24;;;;;;;439.23;226.45;;;;;;;;;;5028312;28;20033;-78
2021/03/20 07:24:06;;;;;;;426.70;211.98;;;;;;;;;;5020273;28;20017;-78
2021/03/20 07:26:33;;;;;;;421.50;207.68;;;;;;;;;;5028798;28;20030;-77
2021/03/20 07:29:02;;;;;;;429.13;219.27;;;;;;;;;;5029173;28;20790;-78
2021/03/20 07:31:29;;;;;;;428.20;212.73;;;;;;;;;;5038582;28;20080;-78
2021/03/20 07:33:56;;;;;;;438.27;219.13;;;;;;;;;;5046168;28;20130;-78
2021/03/20 07:36:41;;;;;;;431.05;218.80;;;;;;;;;;5029675;28;20033;-78
2021/03/20 07:39:10;;;;;;;436.10;217.05;;;;;;;;;;5043026;28;20120;-78
2021/03/20 07:41:55;;;;;;;443.77;221.15;;;;;;;;;;5034226;28;20053;-79
2021/03/20 07:44:22;;;;;;;433.52;216.73;;;;;;;;;;5030376;28;20033;-78
2021/03/20 07:46:54;;;;;;;439.30;223.43;;;;;;;;;;5040678;28;20033;-78
2021/03/20 07:49:22;;;;;;;437.45;226.27;;;;;;;;;;5022587;28;20107;-78
2021/03/20 07:51:54;;;;;;;427.75;218.75;;;;;;;;;;5033682;28;20159;-78
2021/03/20 07:54:37;;;;;;;432.85;221.30;;;;;;;;;;5032572;28;20056;-78
2021/03/20 07:57:20;;;;;;;429.70;216.35;;;;;;;;;;5033389;28;20120;-78
2021/03/20 07:59:51;;;;;;;435.45;226.02;;;;;;;;;;5032024;28;20540;-79
2021/03/20 08:02:29;;;;;;;430.40;226.57;;;;;;;;;;5044767;28;20067;-78
2021/03/20 08:04:57;;;;;;;436.52;219.77;;;;;;;;;;5041942;28;20030;-79
2021/03/20 08:07:48;;;;;;;434.83;224.65;;;;;;;;;;5049367;28;20030;-79
2021/03/20 08:10:15;;;;;;;437.02;226.85;;;;;;;;;;5046269;28;20037;-79
2021/03/20 08:12:52;;;;;;;431.63;226.27;;;;;;;;;;5033701;28;20025;-80
2021/03/20 08:15:20;;;;;;;432.75;228.15;;;;;;;;;;5041365;28;20032;-79
2021/03/20 08:17:46;;;;;;;436.88;236.70;;;;;;;;;;5048512;28;20028;-79
2021/03/20 08:20:21;;;;;;;440.00;240.70;;;;;;;;;;5034914;28;20100;-79
2021/03/20 08:22:53;;;;;;;446.45;250.18;;;;;;;;;;5034917;28;20049;-80
2021/03/20 08:25:28;;;;;;;433.92;240.52;;;;;;;;;;5034758;28;20485;-79
2021/03/20 08:27:54;;;;;;;440.40;264.23;;;;;;;;;;5040407;28;20083;-79
2021/03/20 08:30:39;;;;;;;440.10;272.67;;;;;;;;;;5035003;28;20021;-79
2021/03/20 08:33:23;;;;;;;443.15;280.90;;;;;;;;;;5021461;28;20121;-79
2021/03/20 08:35:58;;;;;;;446.13;298.60;;;;;;;;;;5031742;28;20026;-79
2021/03/20 08:39:03;;;;;;;449.38;306.08;;;;;;;;;;5035470;28;20029;-80
2021/03/20 08:41:55;;;;;;;445.77;300.75;;;;;;;;;;5032266;28;20057;-79
2021/03/20 08:44:32;;;;;;;452.00;304.48;;;;;;;;;;5029715;28;20033;-80
2021/03/20 08:47:07;;;;;;;458.55;320.10;;;;;;;;;;5034804;28;20047;-80
2021/03/20 08:49:36;;;;;;;452.95;317.23;;;;;;;;;;5034229;28;20464;-80
2021/03/20 08:55:21;;;;;;;454.98;330.13;;;;;;;;;;5034297;28;20087;-79
2021/03/20 08:57:52;;;;;;;449.73;316.73;;;;;;;;;;5034765;28;20029;-79
2021/03/20 09:00:18;;;;;;;448.10;320.20;;;;;;;;;;5034531;28;20103;-79
2021/03/20 09:02:45;;;;;;;447.33;314.25;;;;;;;;;;5032987;28;20026;-80
2021/03/20 09:08:14;;;;;;;441.33;297.13;;;;;;;;;;5034475;28;20032;-80
2021/03/20 09:10:48;;;;;;;443.85;298.60;;;;;;;;;;5033975;28;20029;-79
2021/03/20 09:13:26;;;;;;;437.20;292.45;;;;;;;;;;5036564;28;20025;-79
2021/03/20 09:15:58;;;;;;;439.60;289.17;;;;;;;;;;5052712;28;20025;-80
2021/03/20 09:18:31;;;;;;;436.50;286.08;;;;;;;;;;5052718;28;20029;-78
2021/03/20 09:20:58;;;;;;;452.08;283.30;;;;;;;;;;5035808;28;20385;-79
2021/03/20 09:23:26;;;;;;;447.80;283.08;;;;;;;;;;5034294;28;20017;-79
2021/03/20 09:25:54;;;;;;;442.85;279.85;;;;;;;;;;5033843;28;20029;-79
2021/03/20 09:28:31;;;;;;;444.52;286.23;;;;;;;;;;5027513;28;20465;-79
2021/03/20 09:30:59;;;;;;;446.73;284.77;;;;;;;;;;5033932;28;20025;-80
2021/03/20 09:33:28;;;;;;;444.15;287.20;;;;;;;;;;5014177;28;20030;-79
2021/03/20 09:35:54;;;;;;;448.10;294.13;;;;;;;;;;5014297;28;20053;-81
2021/03/20 09:38:42;;;;;;;454.92;291.55;;;;;;;;;;5042098;28;20038;-80
2021/03/20 09:41:25;;;;;;;458.88;295.35;;;;;;;;;;5028574;28;20057;-78
2021/03/20 09:44:01;;;;;;;459.27;293.63;;;;;;;;;;5047554;28;20465;-79
2021/03/20 09:46:26;;;;;;;460.20;303.30;;;;;;;;;;5037717;28;20385;-79
2021/03/20 09:49:17;;;;;;;464.80;313.17;;;;;;;;;;5031973;28;20030;-79
2021/03/20 09:51:46;;;;;;;465.73;324.17;;;;;;;;;;5030118;28;20026;-80
2021/03/20 09:54:43;;;;;;;479.63;353.75;;;;;;;;;;5043569;28;20029;-79
2021/03/20 09:57:12;;;;;;;482.27;359.13;;;;;;;;;;5025532;28;20026;-79
2021/03/20 09:59:47;;;;;;;480.52;371.05;;;;;;;;;;5032972;28;20033;-79
2021/03/20 10:02:16;;;;;;;467.77;365.75;;;;;;;;;;5030570;28;20047;-80
2021/03/20 10:04:59;;;;;;;485.05;396.27;;;;;;;;;;5048416;28;20112;-77
2021/03/20 10:07:25;;;;;;;502.00;413.02;;;;;;;;;;5032822;28;20018;-78
2021/03/20 10:10:25;;;;;;;475.55;390.30;;;;;;;;;;5031676;28;20029;-77
2021/03/20 10:12:51;;;;;;;488.30;388.05;;;;;;;;;;5029840;28;20022;-77
2021/03/20 10:15:30;;;;;;;478.48;381.48;;;;;;;;;;5048327;28;20036;-77
2021/03/20 10:17:59;;;;;;;481.77;385.23;;;;;;;;;;5040535;28;20033;-78
2021/03/20 10:20:47;;;;;;;468.75;363.90;;;;;;;;;;5032596;28;20531;-76
2021/03/20 10:23:16;;;;;;;468.88;351.63;;;;;;;;;;5028372;28;20136;-78
2021/03/20 10:25:44;;;;;;;465.33;344.98;;;;;;;;;;5031705;28;20691;-77
2021/03/20 10:28:09;;;;;;;457.65;318.02;;;;;;;;;;5031358;28;20120;-80
2021/03/20 10:30:55;;;;;;;459.27;322.67;;;;;;;;;;5031746;28;20620;-81
2021/03/20 10:33:29;;;;;;;453.52;307.98;;;;;;;;;;5031534;28;20060;-79
2021/03/20 10:36:09;;;;;;;457.05;303.58;;;;;;;;;;5031344;28;20029;-78
2021/03/20 10:38:35;;;;;;;464.20;320.15;;;;;;;;;;5031804;28;20663;-77
2021/03/20 10:41:23;;;;;;;455.48;307.30;;;;;;;;;;5032332;28;20045;-80
2021/03/20 10:44:03;;;;;;;453.60;300.40;;;;;;;;;;5028888;28;20096;-78
2021/03/20 10:46:34;;;;;;;461.75;313.45;;;;;;;;;;5029784;28;20030;-79
2021/03/20 10:49:03;;;;;;;458.13;309.75;;;;;;;;;;5030790;28;20033;-79
2021/03/20 10:51:37;;;;;;;460.13;313.95;;;;;;;;;;5030251;28;20120;-79
2021/03/20 10:54:16;;;;;;;460.10;310.45;;;;;;;;;;5028463;28;20142;-77
2021/03/20 10:56:42;;;;;;;462.63;313.33;;;;;;;;;;5030493;28;20031;-77
2021/03/20 10:59:32;;;;;;;460.98;318.52;;;;;;;;;;5030971;28;20029;-78
2021/03/20 11:02:20;;;;;;;466.47;323.90;;;;;;;;;;5046546;28;20030;-78
2021/03/20 11:04:46;;;;;;;455.38;314.15;;;;;;;;;;5028539;28;20276;-79
2021/03/20 11:07:15;;;;;;;459.17;313.27;;;;;;;;;;5031287;28;20026;-79
2021/03/20 11:09:41;;;;;;;456.92;300.88;;;;;;;;;;5031267;28;20021;-79
2021/03/20 11:12:17;;;;;;;461.23;306.88;;;;;;;;;;5030597;28;20496;-78
2021/03/20 11:14:48;;;;;;;464.17;305.98;;;;;;;;;;5034258;28;20112;-78
2021/03/20 11:17:16;;;;;;;461.33;306.38;;;;;;;;;;5034601;28;20484;-79
2021/03/20 11:19:42;;;;;;;464.38;305.10;;;;;;;;;;5034827;28;20037;-77
2021/03/20 11:22:39;;;;;;;472.23;317.58;;;;;;;;;;5034485;28;20037;-78
2021/03/20 11:25:08;;;;;;;466.08;302.35;;;;;;;;;;5014748;28;20030;-81
2021/03/20 11:27:36;;;;;;;470.88;306.80;;;;;;;;;;5018748;28;20022;-80
2021/03/20 11:30:06;;;;;;;462.40;293.55;;;;;;;;;;5036274;28;20108;-78
2021/03/20 11:32:39;;;;;;;467.67;304.60;;;;;;;;;;5026261;28;20032;-78
2021/03/20 11:35:20;;;;;;;464.75;302.77;;;;;;;;;;5035210;28;20477;-79
2021/03/20 11:37:46;;;;;;;476.05;324.55;;;;;;;;;;5024055;28;20037;-79
2021/03/20 11:40:23;;;;;;;478.92;338.05;;;;;;;;;;5031151;28;20030;-80
2021/03/20 11:42:54;;;;;;;478.23;358.45;;;;;;;;;;5032472;28;20060;-75
2021/03/20 11:45:28;;;;;;;490.38;382.30;;;;;;;;;;5034593;28;20025;-76
2021/03/20 11:47:55;;;;;;;492.33;392.52;;;;;;;;;;5037455;28;20513;-79
2021/03/20 11:50:23;;;;;;;487.08;395.92;;;;;;;;;;5039293;28;20056;-78
2021/03/20 11:53:10;;;;;;;486.48;395.45;;;;;;;;;;5034465;28;20466;-78
2021/03/20 11:55:38;;;;;;;538.92;429.52;;;;;;;;;;5042599;28;20029;-76
2021/03/20 11:58:08;;;;;;;466.35;352.13;;;;;;;;;;5050220;28;20025;-75
2021/03/20 12:00:34;;;;;;;;;;;;;;;;;;5033988;28;20141;-78
2021/03/20 12:03:01;;;;;;;470.05;345.98;;;;;;;;;;5035551;28;20034;-78
2021/03/20 12:05:38;;;;;;;483.73;381.60;;;;;;;;;;5033969;28;20025;-77
2021/03/20 12:08:21;;;;;;;503.15;413.10;;;;;;;;;;5050246;28;20028;-77
2021/03/20 12:10:55;;;;;;;493.40;401.95;;;;;;;;;;5031392;28;20014;-77
2021/03/20 12:16:44;;;;;;;501.70;421.02;;;;;;;;;;5034512;28;20112;-76
2021/03/20 12:19:13;;;;;;;513.20;439.38;;;;;;;;;;5033410;28;20025;-75
2021/03/20 12:21:58;;;;;;;514.38;448.02;;;;;;;;;;5032703;28;20034;-74
2021/03/20 12:24:27;;;;;;;509.35;431.55;;;;;;;;;;5032811;28;20079;-75
2021/03/20 12:26:54;;;;;;;515.53;432.50;;;;;;;;;;5032823;28;20075;-75
2021/03/20 12:29:29;;;;;;;510.40;414.90;;;;;;;;;;5032530;28;20033;-74
2021/03/20 12:31:55;;;;;;;505.52;405.05;;;;;;;;;;5025920;28;20061;-74
2021/03/20 12:34:26;;;;;;;503.33;395.10;;;;;;;;;;5033299;28;20430;-74
2021/03/20 12:37:11;;;;;;;502.75;393.38;;;;;;;;;;5033116;28;20502;-75
2021/03/20 12:39:37;;;;;;;498.02;387.13;;;;;;;;;;5031736;28;20034;-75
2021/03/20 12:42:03;;;;;;;504.67;400.35;;;;;;;;;;5027680;28;20045;-75
2021/03/20 12:44:32;;;;;;;509.45;400.65;;;;;;;;;;5033122;28;20033;-74
2021/03/20 12:47:02;;;;;;;508.25;397.23;;;;;;;;;;5029615;28;20021;-75
2021/03/20 12:49:29;;;;;;;504.58;387.63;;;;;;;;;;5048033;28;20175;-74
2021/03/20 12:52:15;;;;;;;500.48;383.27;;;;;;;;;;5031385;28;20030;-74
2021/03/20 12:54:44;;;;;;;496.52;376.50;;;;;;;;;;5030270;28;20543;-75
2021/03/20 12:57:34;;;;;;;499.30;376.35;;;;;;;;;;5029724;28;20428;-74
2021/03/20 13:00:01;;;;;;;503.90;372.90;;;;;;;;;;5057390;28;20655;-74
2021/03/20 13:02:27;;;;;;;498.20;367.17;;;;;;;;;;5031015;28;20029;-75
2021/03/20 13:04:53;;;;;;;500.98;369.42;;;;;;;;;;5031721;28;20103;-75
2021/03/20 13:07:21;;;;;;;501.83;367.25;;;;;;;;;;5031302;28;20469;-74
2021/03/20 13:09:48;;;;;;;500.48;365.45;;;;;;;;;;5047084;28;20052;-74
2021/03/20 13:12:14;;;;;;;512.22;375.60;;;;;;;;;;5030170;28;20108;-74
2021/03/20 13:14:41;;;;;;;509.23;374.58;;;;;;;;;;5032854;28;20026;-74
2021/03/20 13:17:07;;;;;;;494.30;357.20;;;;;;;;;;5031565;28;20052;-74
2021/03/20 13:19:34;;;;;;;497.20;355.23;;;;;;;;;;5030218;28;20029;-76
2021/03/20 13:22:01;;;;;;;506.42;366.80;;;;;;;;;;5032625;28;20104;-74
2021/03/20 13:24:27;;;;;;;519.47;375.85;;;;;;;;;;5032537;28;20088;-76
2021/03/20 13:26:53;;;;;;;509.38;361.90;;;;;;;;;;5031706;28;20021;-75
2021/03/20 13:29:19;;;;;;;532.50;385.15;;;;;;;;;;5032155;28;20506;-75
2021/03/20 13:31:49;;;;;;;561.50;406.98;;;;;;;;;;5031747;28;20057;-74
2021/03/20 13:34:15;;;;;;;540.35;388.52;;;;;;;;;;5032542;28;20029;-76
2021/03/20 13:36:41;;;;;;;556.60;402.23;;;;;;;;;;5048080;28;20079;-77
2021/03/20 13:39:08;;;;;;;566.08;415.15;;;;;;;;;;5030753;28;20044;-74
2021/03/20 13:41:34;;;;;;;538.03;385.05;;;;;;;;;;5031025;28;20045;-74
2021/03/20 13:44:10;;;;;;;569.35;413.80;;;;;;;;;;5031461;28;20026;-77
2021/03/20 13:46:37;;;;;;;599.58;435.40;;;;;;;;;;5032570;28;20021;-76
2021/03/20 13:49:04;;;;;;;572.17;408.30;;;;;;;;;;5037424;28;20032;-76
2021/03/20 13:51:30;;;;;;;567.10;407.35;;;;;;;;;;5047972;28;20025;-77
2021/03/20 13:53:56;;;;;;;567.17;402.67;;;;;;;;;;5031564;28;20032;-75
2021/03/20 13:56:27;;;;;;;579.95;407.80;;;;;;;;;;5030985;28;20687;-76
2021/03/20 13:58:53;;;;;;;532.70;357.42;;;;;;;;;;5031939;28;20048;-75
2021/03/20 14:01:19;;;;;;;546.17;369.27;;;;;;;;;;5030934;28;20034;-75
2021/03/20 14:03:45;;;;;;;556.20;378.13;;;;;;;;;;5030843;28;20657;-76
2021/03/20 14:06:11;;;;;;;534.30;362.90;;;;;;;;;;5031431;28;20049;-76
2021/03/20 14:08:37;;;;;;;520.72;342.73;;;;;;;;;;5032945;28;20474;-76
2021/03/20 14:11:05;;;;;;;513.47;338.05;;;;;;;;;;5040198;28;20030;-77
2021/03/20 14:13:35;;;;;;;518.50;344.95;;;;;;;;;;5029541;28;20041;-75
2021/03/20 14:16:01;;;;;;;516.72;345.00;;;;;;;;;;5031786;28;20033;-76
2021/03/20 14:18:27;;;;;;;511.75;337.63;;;;;;;;;;5031112;28;20365;-77
2021/03/20 14:20:55;;;;;;;524.47;342.92;;;;;;;;;;5030181;28;20501;-76
2021/03/20 14:23:22;;;;;;;504.90;329.05;;;;;;;;;;5031221;28;20031;-76
2021/03/20 14:25:48;;;;;;;502.83;326.73;;;;;;;;;;5032648;28;20025;-76
2021/03/20 14:28:14;;;;;;;503.40;330.73;;;;;;;;;;5012939;28;20022;-76